sensor_id;sensor_type;location;lat;lon;timestamp;pressure;altitude;pressure_sealevel;temperature;humidity
51715;BME280;39115;59.332;18.034;2022-08-19T00:01:40;101075.19;;;21.63;70.11
51715;BME280;39115;59.332;18.034;2022-08-19T00:04:09;101076.22;;;21.62;70.21
51715;BME280;39115;59.332;18.034;2022-08-19T00:06:36;101071.84;;;21.61;70.40
51715;BME280;39115;59.332;18.034;2022-08-19T00:09:04;101066.81;;;21.58;70.52
51715;BME280;39115;59.332;18.034;2022-08-19T00:11:30;101074.28;;;21.56;70.63
51715;BME280;39115;59.332;18.034;2022-08-19T00:13:56;101070.13;;;21.53;70.97
51715;BME280;39115;59.332;18.034;2022-08-19T00:16:23;101074.69;;;21.53;71.11
51715;BME280;39115;59.332;18.034;2022-08-19T00:18:49;101065.91;;;21.51;71.19
51715;BME280;39115;59.332;18.034;2022-08-19T00:21:15;101068.81;;;21.49;71.25
51715;BME280;39115;59.332;18.034;2022-08-19T00:23:42;101068.00;;;21.48;71.59
51715;BME280;39115;59.332;18.034;2022-08-19T00:26:08;101072.56;;;21.48;71.72
51715;BME280;39115;59.332;18.034;2022-08-19T00:28:34;101073.41;;;21.48;71.67
51715;BME280;39115;59.332;18.034;2022-08-19T00:31:01;101065.28;;;21.48;71.84
51715;BME280;39115;59.332;18.034;2022-08-19T00:33:28;101070.50;;;21.50;71.78
51715;BME280;39115;59.332;18.034;2022-08-19T00:35:55;101070.50;;;21.50;72.07
51715;BME280;39115;59.332;18.034;2022-08-19T00:38:20;101070.13;;;21.53;72.11
51715;BME280;39115;59.332;18.034;2022-08-19T00:40:47;101062.00;;;21.53;72.25
51715;BME280;39115;59.332;18.034;2022-08-19T00:43:13;101053.88;;;21.53;72.36
51715;BME280;39115;59.332;18.034;2022-08-19T00:45:43;101054.47;;;21.55;72.23
51715;BME280;39115;59.332;18.034;2022-08-19T00:48:10;101056.16;;;21.56;72.47
51715;BME280;39115;59.332;18.034;2022-08-19T00:50:35;101057.00;;;21.57;72.25
51715;BME280;39115;59.332;18.034;2022-08-19T00:53:03;101046.00;;;21.58;72.62
51715;BME280;39115;59.332;18.034;2022-08-19T00:55:30;101046.66;;;21.60;72.49
51715;BME280;39115;59.332;18.034;2022-08-19T00:58:05;101047.47;;;21.61;72.52
51715;BME280;39115;59.332;18.034;2022-08-19T01:00:33;101040.19;;;21.61;72.61
51715;BME280;39115;59.332;18.034;2022-08-19T01:03:02;101041.84;;;21.62;72.74
51715;BME280;39115;59.332;18.034;2022-08-19T01:05:28;101049.78;;;21.64;72.67
51715;BME280;39115;59.332;18.034;2022-08-19T01:07:56;101049.78;;;21.64;72.71
51715;BME280;39115;59.332;18.034;2022-08-19T01:10:26;101051.47;;;21.65;72.79
51715;BME280;39115;59.332;18.034;2022-08-19T01:12:52;101056.03;;;21.64;72.80
51715;BME280;39115;59.332;18.034;2022-08-19T01:15:21;101051.25;;;21.67;72.92
51715;BME280;39115;59.332;18.034;2022-08-19T01:17:48;101053.75;;;21.68;72.81
51715;BME280;39115;59.332;18.034;2022-08-19T01:20:18;101048.13;;;21.70;72.90
51715;BME280;39115;59.332;18.034;2022-08-19T01:22:50;101041.50;;;21.72;72.82
51715;BME280;39115;59.332;18.034;2022-08-19T01:25:20;101043.13;;;21.73;73.03
51715;BME280;39115;59.332;18.034;2022-08-19T01:27:49;101041.91;;;21.76;72.90
51715;BME280;39115;59.332;18.034;2022-08-19T01:30:23;101034.63;;;21.76;72.92
51715;BME280;39115;59.332;18.034;2022-08-19T01:32:50;101037.13;;;21.78;72.89
51715;BME280;39115;59.332;18.034;2022-08-19T01:35:17;101027.97;;;21.79;73.04
51715;BME280;39115;59.332;18.034;2022-08-19T01:37:52;101037.53;;;21.82;73.05
51715;BME280;39115;59.332;18.034;2022-08-19T01:40:19;101040.06;;;21.83;73.05
51715;BME280;39115;59.332;18.034;2022-08-19T01:42:47;101040.06;;;21.83;72.86
51715;BME280;39115;59.332;18.034;2022-08-19T01:45:13;101043.59;;;21.84;73.10
51715;BME280;39115;59.332;18.034;2022-08-19T01:47:39;101034.44;;;21.85;73.13
51715;BME280;39115;59.332;18.034;2022-08-19T01:50:05;101037.78;;;21.87;72.92
51715;BME280;39115;59.332;18.034;2022-08-19T01:52:35;101044.03;;;21.87;73.03
51715;BME280;39115;59.332;18.034;2022-08-19T01:55:01;101044.03;;;21.87;73.04
51715;BME280;39115;59.332;18.034;2022-08-19T01:57:26;101050.91;;;21.90;73.14
51715;BME280;39115;59.332;18.034;2022-08-19T01:59:52;101041.97;;;21.89;73.08
51715;BME280;39115;59.332;18.034;2022-08-19T02:02:18;101040.28;;;21.88;73.15
51715;BME280;39115;59.332;18.034;2022-08-19T02:04:44;101037.59;;;21.88;73.10
51715;BME280;39115;59.332;18.034;2022-08-19T02:07:11;101041.16;;;21.89;73.20
51715;BME280;39115;59.332;18.034;2022-08-19T02:09:36;101036.75;;;21.88;73.29
51715;BME280;39115;59.332;18.034;2022-08-19T02:12:03;101028.00;;;21.86;73.12
51715;BME280;39115;59.332;18.034;2022-08-19T02:14:28;101037.16;;;21.85;73.55
51715;BME280;39115;59.332;18.034;2022-08-19T02:16:54;101040.91;;;21.84;73.40
51715;BME280;39115;59.332;18.034;2022-08-19T02:19:19;101042.78;;;21.83;73.35
51715;BME280;39115;59.332;18.034;2022-08-19T02:21:44;101033.81;;;21.83;73.36
51715;BME280;39115;59.332;18.034;2022-08-19T02:24:10;101038.19;;;21.84;73.45
51715;BME280;39115;59.332;18.034;2022-08-19T02:26:35;101032.97;;;21.82;73.48
51715;BME280;39115;59.332;18.034;2022-08-19T02:29:00;101036.50;;;21.83;73.53
51715;BME280;39115;59.332;18.034;2022-08-19T02:31:26;101026.72;;;21.82;73.45
51715;BME280;39115;59.332;18.034;2022-08-19T02:33:53;101031.09;;;21.83;73.55
51715;BME280;39115;59.332;18.034;2022-08-19T02:36:20;101033.81;;;21.83;73.62
51715;BME280;39115;59.332;18.034;2022-08-19T02:38:47;101027.34;;;21.84;73.73
51715;BME280;39115;59.332;18.034;2022-08-19T02:41:16;101025.50;;;21.84;73.69
51715;BME280;39115;59.332;18.034;2022-08-19T02:43:43;101029.03;;;21.85;73.61
51715;BME280;39115;59.332;18.034;2022-08-19T02:46:28;101030.69;;;21.86;73.40
51715;BME280;39115;59.332;18.034;2022-08-19T02:48:57;101032.56;;;21.85;73.60
51715;BME280;39115;59.332;18.034;2022-08-19T02:51:25;101026.09;;;21.86;73.64
51715;BME280;39115;59.332;18.034;2022-08-19T02:53:51;101028.81;;;21.86;73.62
51715;BME280;39115;59.332;18.034;2022-08-19T02:56:17;101036.13;;;21.86;73.78
51715;BME280;39115;59.332;18.034;2022-08-19T02:58:43;101033.19;;;21.87;73.53
51715;BME280;39115;59.332;18.034;2022-08-19T03:01:10;101028.81;;;21.86;73.60
51715;BME280;39115;59.332;18.034;2022-08-19T03:03:37;101035.91;;;21.87;73.63
51715;BME280;39115;59.332;18.034;2022-08-19T03:06:06;101031.34;;;21.88;73.73
51715;BME280;39115;59.332;18.034;2022-08-19T03:08:32;101042.78;;;21.90;73.64
51715;BME280;39115;59.332;18.034;2022-08-19T03:10:57;101035.50;;;21.90;73.59
51715;BME280;39115;59.332;18.034;2022-08-19T03:13:23;101038.22;;;21.90;73.75
51715;BME280;39115;59.332;18.034;2022-08-19T03:15:49;101041.16;;;21.89;73.81
51715;BME280;39115;59.332;18.034;2022-08-19T03:18:15;101036.75;;;21.88;73.78
51715;BME280;39115;59.332;18.034;2022-08-19T03:20:42;101033.41;;;21.86;73.86
51715;BME280;39115;59.332;18.034;2022-08-19T03:23:08;101033.41;;;21.86;73.86
51715;BME280;39115;59.332;18.034;2022-08-19T03:25:40;101035.25;;;21.85;73.89
51715;BME280;39115;59.332;18.034;2022-08-19T03:28:11;101040.06;;;21.83;73.94
51715;BME280;39115;59.332;18.034;2022-08-19T03:30:38;101040.06;;;21.83;74.05
51715;BME280;39115;59.332;18.034;2022-08-19T03:33:06;101049.22;;;21.82;73.99
51715;BME280;39115;59.332;18.034;2022-08-19T03:35:31;101048.19;;;21.83;73.99
51715;BME280;39115;59.332;18.034;2022-08-19T03:37:59;101046.31;;;21.84;73.96
51715;BME280;39115;59.332;18.034;2022-08-19T03:40:24;101049.66;;;21.86;74.07
51715;BME280;39115;59.332;18.034;2022-08-19T03:42:50;101054.88;;;21.87;73.96
51715;BME280;39115;59.332;18.034;2022-08-19T03:45:16;101042.19;;;21.88;74.01
51715;BME280;39115;59.332;18.034;2022-08-19T03:47:41;101041.16;;;21.89;74.11
51715;BME280;39115;59.332;18.034;2022-08-19T03:50:07;101048.03;;;21.91;74.07
51715;BME280;39115;59.332;18.034;2022-08-19T03:52:33;101048.03;;;21.91;74.02
51715;BME280;39115;59.332;18.034;2022-08-19T03:54:59;101047.00;;;21.92;74.00
51715;BME280;39115;59.332;18.034;2022-08-19T03:57:24;101049.88;;;21.91;74.02
51715;BME280;39115;59.332;18.034;2022-08-19T03:59:49;101057.84;;;21.92;73.87
51715;BME280;39115;59.332;18.034;2022-08-19T04:02:15;101054.06;;;21.93;74.13
51715;BME280;39115;59.332;18.034;2022-08-19T04:04:42;101058.66;;;21.93;74.22
51715;BME280;39115;59.332;18.034;2022-08-19T04:07:09;101055.31;;;21.91;74.11
51715;BME280;39115;59.332;18.034;2022-08-19T04:09:35;101064.28;;;21.91;74.14
51715;BME280;39115;59.332;18.034;2022-08-19T04:12:04;101062.19;;;21.93;74.07
51715;BME280;39115;59.332;18.034;2022-08-19T04:14:31;101055.56;;;21.96;74.08
51715;BME280;39115;59.332;18.034;2022-08-19T04:16:58;101050.75;;;21.98;73.97
51715;BME280;39115;59.332;18.034;2022-08-19T04:19:24;101053.88;;;22.02;74.01
51715;BME280;39115;59.332;18.034;2022-08-19T04:21:53;101067.03;;;22.05;74.05
51715;BME280;39115;59.332;18.034;2022-08-19T04:24:19;101058.69;;;22.06;73.86
51715;BME280;39115;59.332;18.034;2022-08-19T04:26:45;101068.28;;;22.09;73.98
51715;BME280;39115;59.332;18.034;2022-08-19T04:29:14;101068.94;;;22.11;73.88
51715;BME280;39115;59.332;18.034;2022-08-19T04:31:40;101069.56;;;22.13;73.81
51715;BME280;39115;59.332;18.034;2022-08-19T04:34:10;101073.75;;;22.16;73.79
51715;BME280;39115;59.332;18.034;2022-08-19T04:36:37;101072.50;;;22.18;73.71
51715;BME280;39115;59.332;18.034;2022-08-19T04:39:08;101073.78;;;22.22;73.65
51715;BME280;39115;59.332;18.034;2022-08-19T04:41:34;101072.31;;;22.26;73.45
51715;BME280;39115;59.332;18.034;2022-08-19T04:44:19;101078.16;;;22.30;73.46
51715;BME280;39115;59.332;18.034;2022-08-19T04:46:46;101072.50;;;22.32;73.27
51715;BME280;39115;59.332;18.034;2022-08-19T04:49:13;101077.13;;;22.31;73.22
51715;BME280;39115;59.332;18.034;2022-08-19T04:51:41;101075.88;;;22.34;73.20
51715;BME280;39115;59.332;18.034;2022-08-19T04:54:08;101075.69;;;22.35;73.10
51715;BME280;39115;59.332;18.034;2022-08-19T04:56:33;101081.09;;;22.35;72.99
51715;BME280;39115;59.332;18.034;2022-08-19T04:58:59;101080.03;;;22.36;73.06
51715;BME280;39115;59.332;18.034;2022-08-19T05:01:30;101074.44;;;22.38;73.00
51715;BME280;39115;59.332;18.034;2022-08-19T05:04:00;101080.69;;;22.38;72.97
51715;BME280;39115;59.332;18.034;2022-08-19T05:06:27;101072.19;;;22.41;72.98
51715;BME280;39115;59.332;18.034;2022-08-19T05:08:53;101070.06;;;22.43;72.89
51715;BME280;39115;59.332;18.034;2022-08-19T05:11:24;101068.84;;;22.46;73.00
51715;BME280;39115;59.332;18.034;2022-08-19T05:13:51;101063.84;;;22.50;72.83
51715;BME280;39115;59.332;18.034;2022-08-19T05:16:20;101067.81;;;22.54;72.52
51715;BME280;39115;59.332;18.034;2022-08-19T05:18:47;101063.03;;;22.56;72.57
51715;BME280;39115;59.332;18.034;2022-08-19T05:21:31;101051.72;;;22.59;72.54
51715;BME280;39115;59.332;18.034;2022-08-19T05:24:16;101060.94;;;22.58;72.43
51715;BME280;39115;59.332;18.034;2022-08-19T05:26:44;101051.34;;;22.62;72.39
51715;BME280;39115;59.332;18.034;2022-08-19T05:29:19;101048.00;;;22.67;72.31
51715;BME280;39115;59.332;18.034;2022-08-19T05:31:46;101046.53;;;22.71;72.28
51715;BME280;39115;59.332;18.034;2022-08-19T05:34:13;101046.75;;;22.76;72.02
51715;BME280;39115;59.332;18.034;2022-08-19T05:36:42;101043.84;;;22.84;72.05
51715;BME280;39115;59.332;18.034;2022-08-19T05:39:10;101051.34;;;22.89;72.03
51715;BME280;39115;59.332;18.034;2022-08-19T05:41:41;101052.38;;;22.95;71.84
51715;BME280;39115;59.332;18.034;2022-08-19T05:44:07;101059.88;;;22.99;71.62
51715;BME280;39115;59.332;18.034;2022-08-19T05:46:35;101053.59;;;23.05;71.40
51715;BME280;39115;59.332;18.034;2022-08-19T05:49:03;101046.94;;;23.15;70.90
51715;BME280;39115;59.332;18.034;2022-08-19T05:51:30;101054.69;;;23.25;70.83
51715;BME280;39115;59.332;18.034;2022-08-19T05:53:55;101045.88;;;23.29;70.79
51715;BME280;39115;59.332;18.034;2022-08-19T05:56:21;101048.41;;;23.31;70.57
51715;BME280;39115;59.332;18.034;2022-08-19T05:58:46;101052.56;;;23.40;70.48
51715;BME280;39115;59.332;18.034;2022-08-19T06:01:15;101049.81;;;23.47;70.17
51715;BME280;39115;59.332;18.034;2022-08-19T06:03:40;101047.50;;;23.57;69.76
51715;BME280;39115;59.332;18.034;2022-08-19T06:06:08;101048.94;;;23.66;69.67
51715;BME280;39115;59.332;18.034;2022-08-19T06:08:34;101050.34;;;23.76;69.28
51715;BME280;39115;59.332;18.034;2022-08-19T06:13:46;101041.09;;;23.90;69.05
51715;BME280;39115;59.332;18.034;2022-08-19T06:16:14;101032.94;;;23.97;68.75
51715;BME280;39115;59.332;18.034;2022-08-19T06:18:50;101030.81;;;24.06;68.61
51715;BME280;39115;59.332;18.034;2022-08-19T06:21:20;101030.56;;;24.14;68.41
51715;BME280;39115;59.332;18.034;2022-08-19T06:23:47;101029.69;;;24.20;68.21
51715;BME280;39115;59.332;18.034;2022-08-19T06:26:15;101027.75;;;24.27;67.64
51715;BME280;39115;59.332;18.034;2022-08-19T06:28:41;101033.75;;;24.36;67.62
51715;BME280;39115;59.332;18.034;2022-08-19T06:31:20;101030.97;;;24.43;67.19
51715;BME280;39115;59.332;18.034;2022-08-19T06:33:47;101034.06;;;24.53;67.09
51715;BME280;39115;59.332;18.034;2022-08-19T06:36:18;101033.56;;;24.63;66.87
51715;BME280;39115;59.332;18.034;2022-08-19T06:38:43;101041.47;;;24.71;66.62
51715;BME280;39115;59.332;18.034;2022-08-19T06:41:09;101048.28;;;24.81;66.27
51715;BME280;39115;59.332;18.034;2022-08-19T06:43:35;101059.50;;;24.91;65.86
51715;BME280;39115;59.332;18.034;2022-08-19T06:46:01;101050.25;;;24.99;65.83
51715;BME280;39115;59.332;18.034;2022-08-19T06:48:28;101061.66;;;25.07;65.53
51715;BME280;39115;59.332;18.034;2022-08-19T06:50:54;101064.13;;;25.16;65.14
51715;BME280;39115;59.332;18.034;2022-08-19T06:53:19;101061.09;;;25.24;65.31
51715;BME280;39115;59.332;18.034;2022-08-19T06:55:45;101053.47;;;25.33;65.00
51715;BME280;39115;59.332;18.034;2022-08-19T06:58:11;101052.75;;;25.44;64.67
51715;BME280;39115;59.332;18.034;2022-08-19T07:00:36;101052.22;;;25.54;64.57
51715;BME280;39115;59.332;18.034;2022-08-19T07:03:02;101059.03;;;25.63;64.14
51715;BME280;39115;59.332;18.034;2022-08-19T07:05:27;101062.28;;;25.72;63.60
51715;BME280;39115;59.332;18.034;2022-08-19T07:07:53;101048.31;;;25.80;63.63
51715;BME280;39115;59.332;18.034;2022-08-19T07:10:19;101057.03;;;25.89;63.15
51715;BME280;39115;59.332;18.034;2022-08-19T07:12:44;101055.06;;;25.96;62.91
51715;BME280;39115;59.332;18.034;2022-08-19T07:15:10;101062.47;;;26.08;62.66
51715;BME280;39115;59.332;18.034;2022-08-19T07:17:37;101063.81;;;26.17;62.42
51715;BME280;39115;59.332;18.034;2022-08-19T07:20:05;101058.88;;;26.26;62.11
51715;BME280;39115;59.332;18.034;2022-08-19T07:22:32;101059.97;;;26.36;61.90
51715;BME280;39115;59.332;18.034;2022-08-19T07:24:57;101061.28;;;26.46;61.58
51715;BME280;39115;59.332;18.034;2022-08-19T07:27:23;101065.59;;;26.54;61.26
51715;BME280;39115;59.332;18.034;2022-08-19T07:29:48;101063.59;;;26.61;61.05
51715;BME280;39115;59.332;18.034;2022-08-19T07:32:13;101070.38;;;26.70;60.72
51715;BME280;39115;59.332;18.034;2022-08-19T07:34:39;101071.97;;;26.78;60.67
51715;BME280;39115;59.332;18.034;2022-08-19T07:37:05;101065.09;;;26.87;60.10
51715;BME280;39115;59.332;18.034;2022-08-19T07:39:34;101057.16;;;26.97;60.07
51715;BME280;39115;59.332;18.034;2022-08-19T07:42:02;101054.63;;;27.08;59.66
51715;BME280;39115;59.332;18.034;2022-08-19T07:44:28;101054.88;;;27.18;59.43
51715;BME280;39115;59.332;18.034;2022-08-19T07:46:56;101054.50;;;27.26;59.35
51715;BME280;39115;59.332;18.034;2022-08-19T07:49:22;101054.97;;;27.35;58.84
51715;BME280;39115;59.332;18.034;2022-08-19T07:51:54;101052.97;;;27.42;58.65
51715;BME280;39115;59.332;18.034;2022-08-19T07:54:22;101053.66;;;27.50;58.23
51715;BME280;39115;59.332;18.034;2022-08-19T07:56:47;101053.53;;;27.56;58.12
51715;BME280;39115;59.332;18.034;2022-08-19T07:59:16;101050.09;;;27.61;57.77
51715;BME280;39115;59.332;18.034;2022-08-19T08:01:42;101061.47;;;27.70;57.90
51715;BME280;39115;59.332;18.034;2022-08-19T08:04:08;101049.59;;;27.76;57.67
51715;BME280;39115;59.332;18.034;2022-08-19T08:06:53;101050.03;;;27.85;57.23
51715;BME280;39115;59.332;18.034;2022-08-19T08:09:41;101059.50;;;27.94;57.10
51715;BME280;39115;59.332;18.034;2022-08-19T08:12:19;101051.97;;;28.01;57.07
51715;BME280;39115;59.332;18.034;2022-08-19T08:14:49;101052.69;;;28.08;56.63
51715;BME280;39115;59.332;18.034;2022-08-19T08:17:18;101055.03;;;28.17;56.39
51715;BME280;39115;59.332;18.034;2022-08-19T08:19:44;101049.66;;;28.22;56.08
51715;BME280;39115;59.332;18.034;2022-08-19T08:22:16;101052.47;;;28.27;56.05
51715;BME280;39115;59.332;18.034;2022-08-19T08:25:02;101044.38;;;28.32;55.52
51715;BME280;39115;59.332;18.034;2022-08-19T08:27:28;101049.94;;;28.37;55.32
51715;BME280;39115;59.332;18.034;2022-08-19T08:29:56;101040.72;;;28.44;54.98
51715;BME280;39115;59.332;18.034;2022-08-19T08:32:22;101047.38;;;28.48;55.07
51715;BME280;39115;59.332;18.034;2022-08-19T08:34:47;101041.16;;;28.52;54.70
51715;BME280;39115;59.332;18.034;2022-08-19T08:37:13;101042.06;;;28.58;54.61
51715;BME280;39115;59.332;18.034;2022-08-19T08:39:39;101050.97;;;28.65;54.28
51715;BME280;39115;59.332;18.034;2022-08-19T08:42:22;101045.66;;;28.76;54.32
51715;BME280;39115;59.332;18.034;2022-08-19T08:45:06;101043.34;;;28.84;53.80
51715;BME280;39115;59.332;18.034;2022-08-19T08:47:41;101042.81;;;28.87;53.29
51715;BME280;39115;59.332;18.034;2022-08-19T08:50:15;101042.06;;;28.92;52.97
51715;BME280;39115;59.332;18.034;2022-08-19T08:52:45;101042.16;;;28.97;52.57
51715;BME280;39115;59.332;18.034;2022-08-19T08:55:15;101046.88;;;29.02;52.04
51715;BME280;39115;59.332;18.034;2022-08-19T09:02:46;101048.44;;;29.15;51.37
51715;BME280;39115;59.332;18.034;2022-08-19T09:05:11;101046.34;;;29.22;51.38
51715;BME280;39115;59.332;18.034;2022-08-19T09:13:05;101038.75;;;29.46;50.66
51715;BME280;39115;59.332;18.034;2022-08-19T09:15:38;101039.06;;;29.50;50.47
51715;BME280;39115;59.332;18.034;2022-08-19T09:18:05;101035.56;;;29.55;49.83
51715;BME280;39115;59.332;18.034;2022-08-19T09:20:31;101031.22;;;29.59;49.58
51715;BME280;39115;59.332;18.034;2022-08-19T09:22:57;101033.19;;;29.63;49.79
51715;BME280;39115;59.332;18.034;2022-08-19T09:25:23;101030.50;;;29.69;49.64
51715;BME280;39115;59.332;18.034;2022-08-19T09:27:50;101025.09;;;29.74;49.39
51715;BME280;39115;59.332;18.034;2022-08-19T09:30:19;101035.63;;;29.82;49.29
51715;BME280;39115;59.332;18.034;2022-08-19T09:32:47;101035.41;;;29.89;48.99
51715;BME280;39115;59.332;18.034;2022-08-19T09:35:13;101033.84;;;29.93;48.67
51715;BME280;39115;59.332;18.034;2022-08-19T09:37:40;101031.16;;;29.98;48.35
51715;BME280;39115;59.332;18.034;2022-08-19T09:40:06;101032.84;;;30.04;48.19
51715;BME280;39115;59.332;18.034;2022-08-19T09:42:32;101031.56;;;30.12;48.01
51715;BME280;39115;59.332;18.034;2022-08-19T09:44:59;101029.69;;;30.18;47.80
51715;BME280;39115;59.332;18.034;2022-08-19T09:47:24;101033.03;;;30.25;47.67
51715;BME280;39115;59.332;18.034;2022-08-19T09:49:49;101033.41;;;30.34;47.54
51715;BME280;39115;59.332;18.034;2022-08-19T09:52:15;101031.53;;;30.39;46.99
51715;BME280;39115;59.332;18.034;2022-08-19T09:54:41;101033.25;;;30.46;47.12
51715;BME280;39115;59.332;18.034;2022-08-19T09:57:06;101022.91;;;30.53;46.85
51715;BME280;39115;59.332;18.034;2022-08-19T09:59:32;101017.19;;;30.59;46.59
51715;BME280;39115;59.332;18.034;2022-08-19T10:01:57;101016.13;;;30.66;46.64
51715;BME280;39115;59.332;18.034;2022-08-19T10:04:23;101019.19;;;30.69;46.38
51715;BME280;39115;59.332;18.034;2022-08-19T10:07:08;101015.88;;;30.72;46.58
51715;BME280;39115;59.332;18.034;2022-08-19T10:09:33;101007.44;;;30.79;46.40
51715;BME280;39115;59.332;18.034;2022-08-19T10:11:59;101015.44;;;30.86;46.08
51715;BME280;39115;59.332;18.034;2022-08-19T10:14:26;101009.97;;;30.91;45.95
51715;BME280;39115;59.332;18.034;2022-08-19T10:16:52;101014.41;;;30.97;45.72
51715;BME280;39115;59.332;18.034;2022-08-19T10:19:17;101002.03;;;31.00;45.37
51715;BME280;39115;59.332;18.034;2022-08-19T10:21:45;101014.44;;;31.02;45.39
51715;BME280;39115;59.332;18.034;2022-08-19T10:24:10;101009.78;;;31.08;45.23
51715;BME280;39115;59.332;18.034;2022-08-19T10:26:38;101002.44;;;31.14;45.41
51715;BME280;39115;59.332;18.034;2022-08-19T10:29:04;101009.34;;;31.21;45.10
51715;BME280;39115;59.332;18.034;2022-08-19T10:31:32;101004.16;;;31.30;45.00
51715;BME280;39115;59.332;18.034;2022-08-19T10:33:59;101007.50;;;31.37;44.38
51715;BME280;39115;59.332;18.034;2022-08-19T10:36:29;101007.78;;;31.41;44.36
51715;BME280;39115;59.332;18.034;2022-08-19T10:38:57;101002.03;;;31.48;43.94
51715;BME280;39115;59.332;18.034;2022-08-19T10:41:27;100994.91;;;31.57;44.00
51715;BME280;39115;59.332;18.034;2022-08-19T10:43:55;100997.72;;;31.67;43.68
51715;BME280;39115;59.332;18.034;2022-08-19T10:46:23;100998.03;;;31.76;43.68
51715;BME280;39115;59.332;18.034;2022-08-19T10:48:49;100994.19;;;31.82;43.55
51715;BME280;39115;59.332;18.034;2022-08-19T10:51:16;100996.94;;;31.88;42.81
51715;BME280;39115;59.332;18.034;2022-08-19T10:54:00;100998.88;;;31.92;42.33
51715;BME280;39115;59.332;18.034;2022-08-19T10:56:27;100992.31;;;32.04;42.02
51715;BME280;39115;59.332;18.034;2022-08-19T10:59:11;101000.50;;;31.78;41.72
51715;BME280;39115;59.332;18.034;2022-08-19T11:01:40;100985.94;;;31.93;41.45
51715;BME280;39115;59.332;18.034;2022-08-19T11:04:06;100984.31;;;32.07;40.91
51715;BME280;39115;59.332;18.034;2022-08-19T11:06:35;100995.31;;;32.17;40.67
51715;BME280;39115;59.332;18.034;2022-08-19T11:09:02;100995.34;;;32.33;40.28
51715;BME280;39115;59.332;18.034;2022-08-19T11:11:28;101000.34;;;32.46;39.59
51715;BME280;39115;59.332;18.034;2022-08-19T11:13:54;100997.00;;;32.60;38.65
51715;BME280;39115;59.332;18.034;2022-08-19T11:16:22;100994.78;;;32.72;38.31
51715;BME280;39115;59.332;18.034;2022-08-19T11:18:50;100990.94;;;32.78;37.77
51715;BME280;39115;59.332;18.034;2022-08-19T11:21:19;100984.84;;;32.87;37.71
51715;BME280;39115;59.332;18.034;2022-08-19T11:23:47;100973.53;;;32.93;37.36
51715;BME280;39115;59.332;18.034;2022-08-19T11:26:14;100978.19;;;33.03;36.99
51715;BME280;39115;59.332;18.034;2022-08-19T11:28:41;100975.94;;;33.10;36.71
51715;BME280;39115;59.332;18.034;2022-08-19T11:31:18;100978.72;;;33.16;36.23
51715;BME280;39115;59.332;18.034;2022-08-19T11:33:44;100977.09;;;32.99;36.30
51715;BME280;39115;59.332;18.034;2022-08-19T11:36:11;100973.28;;;32.79;36.33
51715;BME280;39115;59.332;18.034;2022-08-19T11:38:37;100971.66;;;32.84;35.97
51715;BME280;39115;59.332;18.034;2022-08-19T11:41:06;100974.09;;;32.90;35.97
51715;BME280;39115;59.332;18.034;2022-08-19T11:43:33;100976.53;;;33.02;36.39
51715;BME280;39115;59.332;18.034;2022-08-19T11:45:59;100970.44;;;33.10;36.39
51715;BME280;39115;59.332;18.034;2022-08-19T11:48:25;100980.06;;;33.18;35.83
51715;BME280;39115;59.332;18.034;2022-08-19T11:50:52;100978.38;;;33.22;35.62
51715;BME280;39115;59.332;18.034;2022-08-19T11:53:19;100977.84;;;33.25;35.09
51715;BME280;39115;59.332;18.034;2022-08-19T11:55:46;100971.47;;;33.25;35.11
51715;BME280;39115;59.332;18.034;2022-08-19T11:58:13;100978.13;;;33.19;34.93
51715;BME280;39115;59.332;18.034;2022-08-19T12:00:39;100977.03;;;33.20;34.67
51715;BME280;39115;59.332;18.034;2022-08-19T12:03:05;100978.13;;;33.24;34.50
51715;BME280;39115;59.332;18.034;2022-08-19T12:05:30;100983.91;;;33.33;34.21
51715;BME280;39115;59.332;18.034;2022-08-19T12:07:56;100981.66;;;33.40;34.20
51715;BME280;39115;59.332;18.034;2022-08-19T12:10:22;100979.41;;;33.47;33.87
51715;BME280;39115;59.332;18.034;2022-08-19T12:12:48;100978.28;;;33.53;33.58
51715;BME280;39115;59.332;18.034;2022-08-19T12:15:13;100974.09;;;33.61;33.62
51715;BME280;39115;59.332;18.034;2022-08-19T12:17:40;100976.81;;;33.66;33.63
51715;BME280;39115;59.332;18.034;2022-08-19T12:20:07;100978.72;;;33.71;33.45
51715;BME280;39115;59.332;18.034;2022-08-19T12:22:34;100983.34;;;33.81;33.21
51715;BME280;39115;59.332;18.034;2022-08-19T12:25:00;100978.09;;;33.89;33.28
51715;BME280;39115;59.332;18.034;2022-08-19T12:27:26;100981.88;;;33.99;32.64
51715;BME280;39115;59.332;18.034;2022-08-19T12:29:51;100980.50;;;33.96;33.03
51715;BME280;39115;59.332;18.034;2022-08-19T12:32:17;100980.56;;;33.91;33.06
51715;BME280;39115;59.332;18.034;2022-08-19T12:34:42;100985.41;;;34.04;32.72
51715;BME280;39115;59.332;18.034;2022-08-19T12:37:08;100980.13;;;34.13;32.99
51715;BME280;39115;59.332;18.034;2022-08-19T12:39:35;100980.16;;;34.08;32.28
51715;BME280;39115;59.332;18.034;2022-08-19T12:42:01;100980.44;;;34.07;32.50
51715;BME280;39115;59.332;18.034;2022-08-19T12:44:27;100984.50;;;34.19;32.32
51715;BME280;39115;59.332;18.034;2022-08-19T12:46:52;100976.63;;;34.32;32.13
51715;BME280;39115;59.332;18.034;2022-08-19T12:49:17;100986.53;;;34.43;31.93
51715;BME280;39115;59.332;18.034;2022-08-19T12:51:43;100976.53;;;34.47;31.80
51715;BME280;39115;59.332;18.034;2022-08-19T12:54:08;100980.59;;;34.55;31.62
51715;BME280;39115;59.332;18.034;2022-08-19T12:56:33;100976.59;;;34.66;31.90